Time;durP1;ratioP1;P1;durP2;ratioP2;P2;SDS_P1;SDS_P2;PMS_P1;PMS_P2;Temp;Humidity;BMP_temperature;BMP_pressure;BME280_temperature;BME280_humidity;BME280_pressure;Samples;Min_cycle;Max_cycle;Signal;HPM_P1;HPM_P2
2023/08/31 00:00:32;;;;;;;;;;;;;;;16.94;83.18;100183.23;105709;1273;61316;-83
2023/08/31 00:03:19;;;;;;;;;;;;;;;16.93;83.23;100178.29;105633;1269;125630;-84
2023/08/31 00:05:46;;;;;;;;;;;;;;;16.88;83.12;100184.02;105781;1272;61235;-84
2023/08/31 00:08:13;;;;;;;;;;;;;;;16.85;83.21;100181.37;105660;1275;61392;-84
2023/08/31 00:10:39;;;;;;;;;;;;;;;16.82;83.31;100182.81;105675;1273;124929;-85
2023/08/31 00:13:07;;;;;;;;;;;;;;;16.81;83.46;100176.59;105666;1270;65100;-85
2023/08/31 00:15:35;;;;;;;;;;;;;;;16.80;83.49;100180.69;105303;1276;125193;-84
2023/08/31 00:18:03;;;;;;;;;;;;;;;16.78;83.52;100183.90;105755;1273;61320;-86
2023/08/31 00:20:30;;;;;;;;;;;;;;;16.78;83.72;100184.44;105726;1274;61486;-87
2023/08/31 00:22:58;;;;;;;;;;;;;;;16.79;83.73;100185.30;105600;1272;124667;-84
2023/08/31 00:25:24;;;;;;;;;;;;;;;16.78;83.66;100186.20;105600;1274;65267;-85
2023/08/31 00:27:52;;;;;;;;;;;;;;;16.79;83.75;100181.05;105582;1272;124969;-86
2023/08/31 00:30:19;;;;;;;;;;;;;;;16.79;83.79;100183.70;105520;1270;61379;-84
2023/08/31 00:32:47;;;;;;;;;;;;;;;16.78;83.78;100185.48;105507;1271;125164;-86
2023/08/31 00:35:14;;;;;;;;;;;;;;;16.76;83.75;100187.45;105637;1270;73426;-90
2023/08/31 00:37:40;;;;;;;;;;;;;;;16.74;83.81;100191.55;105489;1276;66334;-87
2023/08/31 00:40:08;;;;;;;;;;;;;;;16.73;83.85;100190.14;105533;1273;125226;-88
2023/08/31 00:42:35;;;;;;;;;;;;;;;16.72;83.89;100189.45;105657;1270;61311;-89
2023/08/31 00:45:02;;;;;;;;;;;;;;;16.73;83.99;100191.02;105555;1270;125079;-89
2023/08/31 00:47:28;;;;;;;;;;;;;;;16.73;84.04;100192.98;105564;1269;76112;-89
2023/08/31 00:49:55;;;;;;;;;;;;;;;16.75;84.08;100191.35;105698;1270;61377;-87
2023/08/31 00:52:22;;;;;;;;;;;;;;;16.75;84.01;100194.02;105434;1275;125733;-88
2023/08/31 00:54:49;;;;;;;;;;;;;;;16.75;83.94;100191.54;105553;1270;61356;-88
2023/08/31 00:57:16;;;;;;;;;;;;;;;16.74;84.04;100193.31;105445;1270;125198;-88
2023/08/31 00:59:43;;;;;;;;;;;;;;;16.75;84.06;100192.96;105540;1270;74309;-87
2023/08/31 01:02:13;;;;;;;;;;;;;;;16.75;84.10;100198.27;105482;1273;65043;-86
2023/08/31 01:05:02;;;;;;;;;;;;;;;16.75;83.97;100201.10;105396;1274;125292;-87
2023/08/31 01:07:32;;;;;;;;;;;;;;;16.76;84.07;100201.98;105722;1270;61336;-88
2023/08/31 01:10:14;;;;;;;;;;;;;;;16.77;84.09;100208.70;105495;1269;126105;-89
2023/08/31 01:12:44;;;;;;;;;;;;;;;16.79;84.05;100210.11;105591;1270;74797;-89
2023/08/31 01:15:11;;;;;;;;;;;;;;;16.79;84.01;100209.94;105636;1274;125555;-90
2023/08/31 01:17:44;;;;;;;;;;;;;;;16.80;84.14;100214.88;105708;1270;72751;-89
2023/08/31 01:20:11;;;;;;;;;;;;;;;16.81;84.10;100210.97;105464;1273;61228;-85
2023/08/31 01:22:43;;;;;;;;;;;;;;;16.82;84.17;100207.27;105591;1274;125053;-84
2023/08/31 01:25:09;;;;;;;;;;;;;;;16.83;84.10;100200.70;105736;1269;74725;-86
2023/08/31 01:27:36;;;;;;;;;;;;;;;16.80;83.99;100196.99;105613;1269;125926;-88
2023/08/31 01:30:04;;;;;;;;;;;;;;;16.77;84.05;100199.85;105252;1279;71719;-87
2023/08/31 01:32:31;;;;;;;;;;;;;;;16.76;84.06;100201.63;105700;1269;61393;-88
2023/08/31 01:34:57;;;;;;;;;;;;;;;16.75;84.17;100203.05;105494;1270;124792;-86
2023/08/31 01:37:29;;;;;;;;;;;;;;;16.76;84.17;100202.52;105518;1270;74581;-85
2023/08/31 01:39:59;;;;;;;;;;;;;;;16.76;84.30;100205.52;105614;1271;124864;-86
2023/08/31 01:42:26;;;;;;;;;;;;;;;16.77;84.50;100203.03;105649;1270;72706;-85
2023/08/31 01:44:53;;;;;;;;;;;;;;;16.79;84.52;100201.95;105435;1274;125248;-84
2023/08/31 01:47:19;;;;;;;;;;;;;;;16.80;84.58;100199.81;105660;1270;61160;-84
2023/08/31 01:49:47;;;;;;;;;;;;;;;16.80;84.48;100198.76;105627;1275;74763;-84
2023/08/31 01:52:14;;;;;;;;;;;;;;;16.79;84.62;100197.17;105633;1274;124921;-85
2023/08/31 01:54:40;;;;;;;;;;;;;;;16.78;84.61;100200.38;105670;1270;61400;-88
2023/08/31 01:57:07;;;;;;;;;;;;;;;16.79;84.67;100201.95;105666;1269;125064;-90
2023/08/31 01:59:34;;;;;;;;;;;;;;;16.79;84.70;100196.80;105624;1271;61265;-88
2023/08/31 02:02:01;;;;;;;;;;;;;;;16.79;84.59;100194.50;105697;1269;74736;-87
2023/08/31 02:04:27;;;;;;;;;;;;;;;16.77;84.67;100195.77;105643;1269;124883;-87
2023/08/31 02:06:54;;;;;;;;;;;;;;;16.77;84.66;100194.36;105759;1273;71875;-89
2023/08/31 02:09:22;;;;;;;;;;;;;;;16.76;84.68;100198.61;105625;1270;125138;-89
2023/08/31 02:11:48;;;;;;;;;;;;;;;16.75;84.71;100196.67;105806;1270;61269;-89
2023/08/31 02:14:15;;;;;;;;;;;;;;;16.74;84.76;100202.89;105642;1272;61392;-88
2023/08/31 02:16:41;;;;;;;;;;;;;;;16.73;84.84;100201.13;105677;1272;124814;-90
2023/08/31 02:19:08;;;;;;;;;;;;;;;16.74;84.88;100197.58;105698;1270;61191;-89
2023/08/31 02:21:34;;;;;;;;;;;;;;;16.74;84.89;100196.34;105578;1270;124899;-89
2023/08/31 02:24:03;;;;;;;;;;;;;;;16.73;84.85;100193.16;105356;1268;59365;-87
2023/08/31 02:26:29;;;;;;;;;;;;;;;16.73;84.94;100186.95;105726;1269;74455;-86
2023/08/31 02:28:56;;;;;;;;;;;;;;;16.72;84.90;100191.55;105519;1272;124856;-87
2023/08/31 02:31:22;;;;;;;;;;;;;;;16.70;84.87;100200.26;105623;1270;71428;-90
2023/08/31 02:33:49;;;;;;;;;;;;;;;16.70;84.98;100200.80;105553;1270;124935;-84
2023/08/31 02:36:16;;;;;;;;;;;;;;;16.71;85.06;100206.10;105602;1269;61636;-87
2023/08/31 02:38:42;;;;;;;;;;;;;;;16.70;85.07;100209.30;105711;1271;123976;-82
2023/08/31 02:41:09;;;;;;;;;;;;;;;16.69;85.09;100209.13;105626;1270;61562;-83
2023/08/31 02:43:35;;;;;;;;;;;;;;;16.69;85.08;100209.31;105592;1271;61407;-82
2023/08/31 02:46:02;;;;;;;;;;;;;;;16.69;85.17;100206.11;105695;1270;125554;-81
2023/08/31 02:48:29;;;;;;;;;;;;;;;16.70;85.12;100207.89;105911;1274;61237;-82
2023/08/31 02:50:57;;;;;;;;;;;;;;;16.68;85.10;100209.65;105699;1270;125111;-85
2023/08/31 02:53:23;;;;;;;;;;;;;;;16.68;85.17;100205.42;105793;1270;65995;-85
2023/08/31 02:55:50;;;;;;;;;;;;;;;16.67;85.05;100209.15;105613;1275;70738;-85
2023/08/31 02:58:17;;;;;;;;;;;;;;;16.66;85.03;100211.29;105663;1270;124787;-85
2023/08/31 03:00:45;;;;;;;;;;;;;;;16.64;84.97;100214.31;105773;1271;61224;-86
2023/08/31 03:03:12;;;;;;;;;;;;;;;16.63;85.10;100210.42;105709;1270;125194;-85
2023/08/31 03:05:38;;;;;;;;;;;;;;;16.62;85.08;100213.98;105741;1270;67826;-85
2023/08/31 03:08:05;;;;;;;;;;;;;;;16.60;85.10;100213.45;105814;1273;61389;-88
2023/08/31 03:10:32;;;;;;;;;;;;;;;16.61;85.14;100214.52;105557;1270;124855;-88
2023/08/31 03:12:58;;;;;;;;;;;;;;;16.61;85.14;100212.57;105510;1270;61228;-88
2023/08/31 03:15:25;;;;;;;;;;;;;;;16.60;84.96;100214.52;105481;1275;126100;-83
2023/08/31 03:17:51;;;;;;;;;;;;;;;16.58;84.99;100214.18;105684;1270;61412;-83
2023/08/31 03:20:18;;;;;;;;;;;;;;;16.58;85.02;100217.20;105658;1270;70680;-88
2023/08/31 03:22:44;;;;;;;;;;;;;;;16.58;84.96;100217.55;105511;1270;124942;-87
2023/08/31 03:25:10;;;;;;;;;;;;;;;16.57;84.84;100218.27;105776;1269;61286;-85
2023/08/31 03:27:37;;;;;;;;;;;;;;;16.57;85.00;100220.21;105739;1269;124797;-87
2023/08/31 03:30:04;;;;;;;;;;;;;;;16.58;85.04;100220.91;105602;1271;65685;-88
2023/08/31 03:32:31;;;;;;;;;;;;;;;16.57;84.97;100222.86;105787;1270;72109;-87
2023/08/31 03:34:58;;;;;;;;;;;;;;;16.57;85.00;100225.16;105563;1270;124763;-89
2023/08/31 03:37:24;;;;;;;;;;;;;;;16.58;84.99;100226.40;105503;1270;61276;-87
2023/08/31 03:39:51;;;;;;;;;;;;;;;16.57;85.00;100229.25;105718;1274;125043;-87
2023/08/31 03:42:17;;;;;;;;;;;;;;;16.57;85.06;100233.50;105452;1270;61345;-87
2023/08/31 03:44:43;;;;;;;;;;;;;;;16.58;85.04;100237.05;105676;1270;125634;-87
2023/08/31 03:47:10;;;;;;;;;;;;;;;16.59;84.97;100238.98;105745;1270;61387;-87
2023/08/31 03:49:36;;;;;;;;;;;;;;;16.59;84.94;100241.29;105784;1271;61282;-85
2023/08/31 03:52:03;;;;;;;;;;;;;;;16.59;84.89;100240.23;105663;1270;125094;-84
2023/08/31 03:54:30;;;;;;;;;;;;;;;16.59;85.00;100238.80;105819;1270;65344;-85
2023/08/31 03:56:56;;;;;;;;;;;;;;;16.59;84.82;100238.81;105612;1270;125102;-85
2023/08/31 03:59:23;;;;;;;;;;;;;;;16.58;84.92;100234.38;105818;1272;61188;-86
2023/08/31 04:01:49;;;;;;;;;;;;;;;16.59;84.93;100232.42;105712;1274;61379;-85
2023/08/31 04:04:16;;;;;;;;;;;;;;;16.60;84.87;100236.13;105633;1269;125115;-85
2023/08/31 04:06:42;;;;;;;;;;;;;;;16.60;84.78;100235.24;105819;1270;66498;-85
2023/08/31 04:09:09;;;;;;;;;;;;;;;16.60;84.83;100233.47;105744;1270;125105;-87
2023/08/31 04:11:35;;;;;;;;;;;;;;;16.62;84.86;100238.78;105667;1270;62853;-93
2023/08/31 04:14:02;;;;;;;;;;;;;;;16.61;84.76;100238.25;105684;1276;61304;-85
2023/08/31 04:16:28;;;;;;;;;;;;;;;16.62;84.75;100236.30;105528;1275;124931;-86
2023/08/31 04:18:55;;;;;;;;;;;;;;;16.62;84.84;100238.78;105697;1273;61289;-86
2023/08/31 04:21:22;;;;;;;;;;;;;;;16.62;84.80;100240.73;105653;1269;125119;-85
2023/08/31 04:23:48;;;;;;;;;;;;;;;16.61;84.76;100241.80;105754;1269;61447;-86
2023/08/31 04:26:15;;;;;;;;;;;;;;;16.61;84.78;100238.78;105768;1270;61294;-84
2023/08/31 04:28:42;;;;;;;;;;;;;;;16.63;84.83;100240.89;105820;1270;125206;-85
2023/08/31 04:31:08;;;;;;;;;;;;;;;16.64;84.65;100241.41;105703;1269;65979;-85
2023/08/31 04:33:35;;;;;;;;;;;;;;;16.65;84.67;100241.95;105706;1270;124887;-84
2023/08/31 04:36:03;;;;;;;;;;;;;;;16.65;84.52;100243.89;105680;1270;59457;-88
2023/08/31 04:38:37;;;;;;;;;;;;;;;16.66;84.45;100248.13;105619;1271;61397;-86
2023/08/31 04:41:04;;;;;;;;;;;;;;;16.67;84.50;100249.53;105604;1269;123720;-87
2023/08/31 04:43:31;;;;;;;;;;;;;;;16.71;84.59;100250.04;105698;1270;65023;-87
2023/08/31 04:45:57;;;;;;;;;;;;;;;16.74;84.48;100248.42;105565;1275;123726;-88
2023/08/31 04:48:24;;;;;;;;;;;;;;;16.75;84.38;100243.80;105559;1275;61269;-82
2023/08/31 04:50:57;;;;;;;;;;;;;;;16.79;84.26;100243.59;105617;1273;126078;-83
2023/08/31 04:53:31;;;;;;;;;;;;;;;16.85;84.37;100242.14;105767;1270;73436;-83
2023/08/31 04:55:58;;;;;;;;;;;;;;;16.93;84.32;100238.55;105689;1270;66259;-86
2023/08/31 04:58:24;;;;;;;;;;;;;;;16.99;84.19;100242.20;105333;1273;125064;-86
2023/08/31 05:00:51;;;;;;;;;;;;;;;17.02;84.04;100241.11;105723;1272;61306;-83
2023/08/31 05:03:18;;;;;;;;;;;;;;;17.07;83.82;100245.14;105554;1271;125032;-87
2023/08/31 05:05:44;;;;;;;;;;;;;;;17.12;83.77;100243.86;105746;1270;61305;-85
2023/08/31 05:08:11;;;;;;;;;;;;;;;17.15;83.76;100248.97;105778;1270;61287;-89
2023/08/31 05:10:37;;;;;;;;;;;;;;;17.19;83.73;100254.25;105412;1270;125502;-88
2023/08/31 05:13:04;;;;;;;;;;;;;;;17.23;83.65;100255.98;105524;1272;60614;-87
2023/08/31 05:15:31;;;;;;;;;;;;;;;17.28;83.66;100258.42;105576;1270;124934;-87
2023/08/31 05:17:57;;;;;;;;;;;;;;;17.31;83.51;100254.31;105833;1270;61303;-88
2023/08/31 05:20:24;;;;;;;;;;;;;;;17.36;83.58;100253.91;105740;1273;61196;-87
2023/08/31 05:22:50;;;;;;;;;;;;;;;17.42;83.50;100255.06;105774;1271;124883;-89
2023/08/31 05:25:17;;;;;;;;;;;;;;;17.45;83.31;100256.10;105993;1273;61249;-87
2023/08/31 05:27:44;;;;;;;;;;;;;;;17.52;83.11;100253.53;105808;1269;125249;-87
2023/08/31 05:30:10;;;;;;;;;;;;;;;17.59;83.05;100254.34;105745;1273;74703;-87
2023/08/31 05:32:37;;;;;;;;;;;;;;;17.65;83.04;100250.53;105840;1271;65255;-87
2023/08/31 05:35:03;;;;;;;;;;;;;;;17.74;82.94;100253.80;105684;1270;124665;-86
2023/08/31 05:37:32;;;;;;;;;;;;;;;17.86;83.00;100255.09;105907;1270;61420;-87
2023/08/31 05:39:59;;;;;;;;;;;;;;;18.02;82.98;100258.99;105727;1270;124911;-89
2023/08/31 05:42:26;;;;;;;;;;;;;;;18.17;82.76;100261.27;105604;1275;61311;-91
2023/08/31 05:44:53;;;;;;;;;;;;;;;18.28;82.41;100264.30;105589;1270;125145;-88
2023/08/31 05:47:19;;;;;;;;;;;;;;;18.38;82.10;100263.98;105806;1267;71358;-88
2023/08/31 05:49:46;;;;;;;;;;;;;;;18.48;81.81;100264.20;105823;1268;61301;-88
2023/08/31 05:52:14;;;;;;;;;;;;;;;18.58;81.59;100264.20;105591;1270;125124;-89
2023/08/31 05:54:40;;;;;;;;;;;;;;;18.70;81.45;100264.02;105511;1270;72840;-89
2023/08/31 05:57:07;;;;;;;;;;;;;;;18.84;81.20;100263.09;105760;1270;125424;-84
2023/08/31 05:59:34;;;;;;;;;;;;;;;18.99;80.80;100267.48;105893;1270;71034;-81
2023/08/31 06:02:00;;;;;;;;;;;;;;;19.09;80.57;100274.41;105830;1273;61387;-85
2023/08/31 06:04:27;;;;;;;;;;;;;;;19.19;80.45;100276.02;105720;1269;124885;-84
2023/08/31 06:06:54;;;;;;;;;;;;;;;19.30;80.19;100275.66;105611;1271;73209;-84
2023/08/31 06:09:21;;;;;;;;;;;;;;;19.41;79.96;100278.27;105635;1273;125165;-86
2023/08/31 06:11:48;;;;;;;;;;;;;;;19.49;79.36;100277.79;105753;1269;72466;-85
2023/08/31 06:14:14;;;;;;;;;;;;;;;19.55;79.25;100274.28;105873;1271;61421;-88
2023/08/31 06:16:41;;;;;;;;;;;;;;;19.61;78.74;100275.41;105548;1270;126184;-87
2023/08/31 06:19:07;;;;;;;;;;;;;;;19.65;78.43;100273.38;105646;1270;74405;-88
2023/08/31 06:21:35;;;;;;;;;;;;;;;19.66;78.24;100272.81;105613;1270;124108;-86
2023/08/31 06:24:04;;;;;;;;;;;;;;;19.69;78.10;100271.69;105625;1270;72772;-90
2023/08/31 06:26:31;;;;;;;;;;;;;;;19.72;78.02;100271.66;105661;1273;61294;-89
2023/08/31 06:28:58;;;;;;;;;;;;;;;19.75;77.78;100273.03;105754;1270;124578;-82
2023/08/31 06:31:24;;;;;;;;;;;;;;;19.76;77.75;100281.36;105827;1269;59980;-81
2023/08/31 06:33:51;;;;;;;;;;;;;;;19.80;77.66;100281.30;105714;1270;124784;-82
2023/08/31 06:36:17;;;;;;;;;;;;;;;19.84;77.50;100287.09;105766;1270;61189;-88
2023/08/31 06:38:47;;;;;;;;;;;;;;;19.87;77.16;100283.48;105675;1269;61403;-87
2023/08/31 06:41:15;;;;;;;;;;;;;;;19.81;76.64;100280.73;105706;1270;61212;-84
2023/08/31 06:43:41;;;;;;;;;;;;;;;19.76;76.74;100283.33;105837;1273;72593;-91
2023/08/31 06:46:08;;;;;;;;;;;;;;;19.77;76.78;100283.65;105653;1271;124249;-92
2023/08/31 06:48:34;;;;;;;;;;;;;;;19.81;76.78;100283.58;105727;1269;61378;-92
2023/08/31 06:51:03;;;;;;;;;;;;;;;19.88;76.86;100284.52;105642;1270;124567;-90
2023/08/31 06:53:32;;;;;;;;;;;;;;;19.95;76.85;100287.38;105693;1271;61208;-90
2023/08/31 06:55:58;;;;;;;;;;;;;;;20.04;76.57;100288.09;105738;1269;74686;-90
2023/08/31 06:58:34;;;;;;;;;;;;;;;20.15;76.51;100285.89;105562;1273;124960;-90
2023/08/31 07:01:01;;;;;;;;;;;;;;;20.24;76.19;100285.16;105593;1270;71302;-88
2023/08/31 07:03:27;;;;;;;;;;;;;;;20.29;76.05;100282.73;105644;1270;125085;-88
2023/08/31 07:05:54;;;;;;;;;;;;;;;20.37;76.08;100285.92;105606;1270;61384;-90
2023/08/31 07:08:21;;;;;;;;;;;;;;;20.46;76.04;100290.55;105729;1269;73385;-92
2023/08/31 07:10:50;;;;;;;;;;;;;;;20.57;75.79;100291.54;105872;1270;124818;-91
2023/08/31 07:13:19;;;;;;;;;;;;;;;20.71;75.54;100292.13;105874;1270;70817;-92
2023/08/31 07:19:14;;;;;;;;;;;;;;;21.07;74.93;100288.92;105946;1268;61335;-78
2023/08/31 07:21:41;;;;;;;;;;;;;;;21.20;74.90;100292.50;105267;1270;124973;-81
2023/08/31 07:24:36;;;;;;;;;;;;;;;21.36;74.53;100293.34;105830;1270;65067;-78
2023/08/31 07:27:23;;;;;;;;;;;;;;;21.48;73.33;100295.17;105597;1273;124784;-78
2023/08/31 07:29:56;;;;;;;;;;;;;;;21.56;73.00;100291.75;107938;1270;59165;-78
2023/08/31 07:32:25;;;;;;;;;;;;;;;21.65;72.78;100292.59;106441;1269;60490;-77
2023/08/31 07:34:52;;;;;;;;;;;;;;;21.67;72.26;100287.54;107999;1271;124394;-78
2023/08/31 07:37:31;;;;;;;;;;;;;;;21.66;72.14;100286.30;108182;1271;64468;-78
2023/08/31 07:39:58;;;;;;;;;;;;;;;21.66;71.85;100288.80;108092;1268;124991;-78
2023/08/31 07:42:24;;;;;;;;;;;;;;;21.65;71.63;100291.34;108182;1269;59335;-79
2023/08/31 07:44:51;;;;;;;;;;;;;;;21.64;71.73;100295.48;104121;1270;3721731;-78
2023/08/31 07:47:17;;;;;;;;;;;;;;;21.67;71.78;100295.39;105017;1271;124366;-78
2023/08/31 07:49:44;;;;;;;;;;;;;;;21.72;71.63;100300.77;105007;1268;61405;-76
2023/08/31 07:52:11;;;;;;;;;;;;;;;21.78;71.52;100300.09;105355;1269;124586;-78
2023/08/31 07:54:37;;;;;;;;;;;;;;;21.83;71.48;100306.00;105769;1270;59448;-77
2023/08/31 07:57:04;;;;;;;;;;;;;;;21.91;71.37;100307.73;105046;1273;124669;-78
2023/08/31 07:59:30;;;;;;;;;;;;;;;22.03;71.25;100309.72;105380;1270;61282;-78
2023/08/31 08:01:57;;;;;;;;;;;;;;;22.15;70.91;100310.25;105778;1269;59448;-77
2023/08/31 08:04:25;;;;;;;;;;;;;;;22.34;70.73;100313.66;105695;1270;125193;-78
2023/08/31 08:06:52;;;;;;;;;;;;;;;22.58;70.76;100311.13;105843;1270;61492;-78
2023/08/31 08:09:18;;;;;;;;;;;;;;;22.84;70.58;100311.35;105718;1270;124401;-78
2023/08/31 08:11:45;;;;;;;;;;;;;;;23.02;69.72;100312.55;105737;1270;73134;-77
2023/08/31 08:14:11;;;;;;;;;;;;;;;23.13;69.15;100307.02;105687;1271;64517;-78
2023/08/31 08:16:38;;;;;;;;;;;;;;;23.18;68.70;100310.27;105681;1269;124747;-82
2023/08/31 08:19:05;;;;;;;;;;;;;;;23.21;68.18;100308.34;105762;1270;61150;-78
2023/08/31 08:21:32;;;;;;;;;;;;;;;23.35;68.26;100308.58;105739;1270;125188;-78
2023/08/31 08:23:58;;;;;;;;;;;;;;;23.56;67.96;100310.54;105884;1269;73444;-77
2023/08/31 08:26:25;;;;;;;;;;;;;;;23.74;67.55;100313.48;105483;1268;64636;-78
2023/08/31 08:28:51;;;;;;;;;;;;;;;23.90;67.10;100316.52;105757;1271;125462;-80
2023/08/31 08:31:18;;;;;;;;;;;;;;;24.00;66.49;100316.30;105959;1271;61607;-79
2023/08/31 08:33:44;;;;;;;;;;;;;;;24.02;65.84;100313.92;105943;1272;125609;-78
2023/08/31 08:36:11;;;;;;;;;;;;;;;24.02;65.84;100319.45;105858;1270;74739;-79
2023/08/31 08:38:37;;;;;;;;;;;;;;;24.06;65.54;100324.69;105974;1270;66231;-78
2023/08/31 08:41:05;;;;;;;;;;;;;;;24.10;64.94;100326.50;105834;1271;124474;-77
2023/08/31 08:43:32;;;;;;;;;;;;;;;24.11;64.15;100330.42;106084;1272;59200;-78
2023/08/31 08:46:01;;;;;;;;;;;;;;;24.01;63.63;100327.91;105861;1271;124420;-78
2023/08/31 08:48:27;;;;;;;;;;;;;;;23.90;63.22;100330.85;105883;1270;73438;-79
2023/08/31 08:50:54;;;;;;;;;;;;;;;23.76;63.21;100337.97;106032;1270;66402;-79
2023/08/31 08:53:21;;;;;;;;;;;;;;;23.65;63.50;100341.21;105883;1270;75248;-79
2023/08/31 08:55:48;;;;;;;;;;;;;;;23.67;63.86;100339.35;105802;1270;59665;-80
2023/08/31 08:58:16;;;;;;;;;;;;;;;23.79;63.83;100340.90;105957;1270;61304;-80
2023/08/31 09:00:48;;;;;;;;;;;;;;;23.90;63.84;100341.95;105821;1270;74697;-81
2023/08/31 09:03:21;;;;;;;;;;;;;;;24.06;63.86;100344.39;105716;1270;124312;-82
2023/08/31 09:05:48;;;;;;;;;;;;;;;24.18;63.21;100346.27;105818;1275;72529;-81
2023/08/31 09:08:30;;;;;;;;;;;;;;;24.18;63.03;100346.44;105766;1272;61253;-82
2023/08/31 09:10:59;;;;;;;;;;;;;;;24.22;63.11;100353.84;105774;1270;124313;-81
2023/08/31 09:13:35;;;;;;;;;;;;;;;24.24;62.73;100354.11;105848;1272;73226;-80
2023/08/31 09:16:03;;;;;;;;;;;;;;;24.20;62.27;100351.43;105576;1269;124539;-81
2023/08/31 09:18:34;;;;;;;;;;;;;;;24.07;62.12;100348.33;105909;1268;70492;-80
2023/08/31 09:21:11;;;;;;;;;;;;;;;24.01;61.96;100348.89;105620;1270;61396;-80
2023/08/31 09:23:40;;;;;;;;;;;;;;;23.97;61.73;100348.11;106945;1268;61231;-80
2023/08/31 09:26:06;;;;;;;;;;;;;;;23.92;61.61;100354.79;105715;1269;59348;-80
2023/08/31 09:28:33;;;;;;;;;;;;;;;23.95;61.44;100352.89;105636;1270;124367;-80
2023/08/31 09:31:09;;;;;;;;;;;;;;;23.98;61.37;100354.38;105903;1270;61273;-80
2023/08/31 09:33:36;;;;;;;;;;;;;;;24.04;61.38;100352.88;105811;1270;61390;-80
2023/08/31 09:36:04;;;;;;;;;;;;;;;24.11;61.30;100356.23;105917;1270;61271;-80
2023/08/31 09:38:30;;;;;;;;;;;;;;;24.17;61.30;100357.63;105812;1271;74701;-79
2023/08/31 09:41:07;;;;;;;;;;;;;;;24.24;61.39;100357.53;105760;1273;125883;-80
2023/08/31 09:43:34;;;;;;;;;;;;;;;24.34;60.97;100360.02;105855;1270;61755;-80
2023/08/31 09:46:05;;;;;;;;;;;;;;;24.39;60.61;100364.48;105703;1269;124316;-82
2023/08/31 09:48:31;;;;;;;;;;;;;;;24.43;60.57;100362.71;105667;1269;61399;-81
2023/08/31 09:50:58;;;;;;;;;;;;;;;24.49;60.19;100366.65;105631;1270;74603;-83
2023/08/31 09:53:28;;;;;;;;;;;;;;;24.53;60.01;100370.45;105577;1270;124396;-82
2023/08/31 09:55:58;;;;;;;;;;;;;;;24.59;59.86;100363.92;105794;1271;73815;-84
2023/08/31 09:58:25;;;;;;;;;;;;;;;24.69;59.95;100366.23;105646;1270;124141;-83
2023/08/31 10:01:02;;;;;;;;;;;;;;;24.83;59.54;100368.19;105727;1270;61397;-88
2023/08/31 10:03:33;;;;;;;;;;;;;;;24.87;59.19;100365.69;105356;1270;124306;-87
2023/08/31 10:06:00;;;;;;;;;;;;;;;24.83;59.10;100367.10;105806;1270;65182;-86
2023/08/31 10:08:31;;;;;;;;;;;;;;;24.85;59.14;100366.66;105791;1273;71532;-88
2023/08/31 10:11:01;;;;;;;;;;;;;;;24.86;58.60;100365.00;105542;1271;124492;-87
2023/08/31 10:13:43;;;;;;;;;;;;;;;24.90;58.43;100363.04;105664;1269;61208;-87
2023/08/31 10:16:13;;;;;;;;;;;;;;;24.93;58.04;100364.91;105675;1267;126016;-88
2023/08/31 10:18:41;;;;;;;;;;;;;;;24.89;57.75;100366.36;105529;1270;66127;-87
2023/08/31 10:21:11;;;;;;;;;;;;;;;24.86;57.31;100366.27;105754;1271;71071;-87
2023/08/31 10:23:50;;;;;;;;;;;;;;;24.88;57.04;100366.55;105514;1270;125584;-87
2023/08/31 10:26:35;;;;;;;;;;;;;;;24.91;56.42;100359.59;105721;1270;61300;-87
2023/08/31 10:29:04;;;;;;;;;;;;;;;24.94;55.81;100355.70;105742;1270;124205;-87
2023/08/31 10:31:34;;;;;;;;;;;;;;;24.97;55.68;100353.42;105764;1270;66128;-86
2023/08/31 10:34:03;;;;;;;;;;;;;;;25.17;55.77;100354.95;105948;1270;124621;-87
2023/08/31 10:36:37;;;;;;;;;;;;;;;25.35;55.55;100349.73;105807;1270;61295;-88
2023/08/31 10:39:21;;;;;;;;;;;;;;;25.50;55.23;100349.64;105836;1271;61364;-87
2023/08/31 10:41:51;;;;;;;;;;;;;;;25.58;55.28;100352.67;105651;1270;124002;-87
2023/08/31 10:44:21;;;;;;;;;;;;;;;25.66;54.97;100351.09;105860;1271;65467;-85
2023/08/31 10:47:26;;;;;;;;;;;;;;;25.68;54.75;100347.79;106060;1269;124486;-87
2023/08/31 10:49:53;;;;;;;;;;;;;;;25.66;54.61;100345.86;105907;1270;61290;-89
2023/08/31 10:52:20;;;;;;;;;;;;;;;25.63;54.53;100344.74;105767;1274;124731;-87
2023/08/31 10:54:47;;;;;;;;;;;;;;;25.66;54.73;100343.20;105789;1270;74724;-81
2023/08/31 10:57:16;;;;;;;;;;;;;;;25.66;54.36;100341.40;105819;1271;65631;-89
2023/08/31 10:59:46;;;;;;;;;;;;;;;25.60;54.11;100342.15;105868;1273;123959;-87
2023/08/31 11:02:57;;;;;;;;;;;;;;;;;;;;;
2023/08/31 11:05:26;;;;;;;;;;;;;;;25.60;53.92;100339.31;105745;1269;124423;-87
2023/08/31 11:07:53;;;;;;;;;;;;;;;25.54;54.01;100340.27;105957;1271;73619;-85
2023/08/31 11:10:20;;;;;;;;;;;;;;;25.51;54.06;100337.90;105811;1271;124309;-87
2023/08/31 11:12:47;;;;;;;;;;;;;;;25.51;54.31;100331.98;105727;1273;72625;-86
2023/08/31 11:15:15;;;;;;;;;;;;;;;25.52;54.17;100330.48;105964;1270;61335;-87
2023/08/31 11:17:41;;;;;;;;;;;;;;;25.56;54.25;100325.30;105783;1270;124543;-86
2023/08/31 11:20:09;;;;;;;;;;;;;;;25.66;54.07;100325.91;105835;1271;73956;-88
2023/08/31 11:22:39;;;;;;;;;;;;;;;25.76;53.79;100323.87;105760;1268;124283;-83
2023/08/31 11:25:07;;;;;;;;;;;;;;;25.83;53.94;100323.77;105759;1273;72535;-81
2023/08/31 11:27:33;;;;;;;;;;;;;;;25.91;54.04;100321.07;105699;1269;126010;-85
2023/08/31 11:30:00;;;;;;;;;;;;;;;26.01;54.11;100321.67;105763;1270;61771;-82
2023/08/31 11:32:26;;;;;;;;;;;;;;;26.03;53.75;100317.66;105791;1269;73586;-82
2023/08/31 11:34:53;;;;;;;;;;;;;;;26.06;53.48;100314.63;105598;1270;124178;-82
2023/08/31 11:37:20;;;;;;;;;;;;;;;26.03;53.50;100318.02;105798;1271;59452;-82
2023/08/31 11:39:51;;;;;;;;;;;;;;;26.04;53.72;100319.41;105446;1273;124553;-83
2023/08/31 11:42:19;;;;;;;;;;;;;;;26.12;53.42;100323.70;105815;1270;61272;-81
2023/08/31 11:44:50;;;;;;;;;;;;;;;26.18;53.18;100326.08;105596;1271;74736;-82
2023/08/31 11:47:16;;;;;;;;;;;;;;;26.21;53.08;100322.19;105693;1270;124253;-80
2023/08/31 11:49:45;;;;;;;;;;;;;;;26.27;53.05;100318.86;105808;1270;71418;-88
2023/08/31 11:52:24;;;;;;;;;;;;;;;26.39;53.27;100323.00;105888;1269;124368;-88
2023/08/31 11:54:57;;;;;;;;;;;;;;;26.48;52.97;100320.38;105823;1268;59949;-86
2023/08/31 11:57:26;;;;;;;;;;;;;;;26.53;52.76;100321.38;105923;1270;67264;-86
2023/08/31 11:59:53;;;;;;;;;;;;;;;26.51;52.26;100320.81;105964;1270;61196;-85
2023/08/31 12:02:19;;;;;;;;;;;;;;;26.37;52.15;100322.15;105813;1273;61205;-81
2023/08/31 12:04:46;;;;;;;;;;;;;;;26.22;52.03;100320.73;105666;1270;124664;-81
2023/08/31 12:07:24;;;;;;;;;;;;;;;26.17;52.02;100317.50;105832;1269;61312;-80
2023/08/31 12:09:54;;;;;;;;;;;;;;;26.26;51.77;100315.67;105842;1268;124288;-78
2023/08/31 12:12:21;;;;;;;;;;;;;;;26.38;51.74;100309.20;105773;1269;66182;-79
2023/08/31 12:15:14;;;;;;;;;;;;;;;26.45;51.77;100310.45;105855;1270;71536;-80
2023/08/31 12:17:43;;;;;;;;;;;;;;;26.38;51.14;100310.06;105688;1271;124689;-80
2023/08/31 12:20:31;;;;;;;;;;;;;;;26.26;51.06;100312.45;105050;1269;61400;-81
2023/08/31 12:22:58;;;;;;;;;;;;;;;25.90;50.94;100312.80;105342;1271;124762;-82
2023/08/31 12:25:27;;;;;;;;;;;;;;;25.69;51.08;100315.19;105962;1267;64188;-83
2023/08/31 12:27:54;;;;;;;;;;;;;;;25.54;51.00;100318.19;106059;1268;124414;-82
2023/08/31 12:30:21;;;;;;;;;;;;;;;25.39;50.84;100319.94;106021;1270;61384;-84
2023/08/31 12:32:48;;;;;;;;;;;;;;;25.29;51.00;100321.80;106078;1269;59917;-84